Airfield :
LOGIN :

Register | Disclaimer

   EN    FR    IT 

 










Legend :    VFR   Marginal VFR   IFR   Intensive IFR   Very Intensive IFR
Visi :
Ceiling :
>= 8 km
>= 3000ft
5 to 8 km
1000 to 3000 ft
1500m to 5 km
500 to 1000 ft
800 to 1500m
200 to 500 ft
< 800m
< 200 ft
Symbols :   Thunderstorms  Fog  Heavy snow  Heavy precipitations  Wind > 20 kt
SIGMETs :     Misc.  Thunderstorms  Icing  Turbulence  Mountain Waves  Volcanic Ashes







- Airport Elevation : 465 ft
- IATA code : LEJ


EDDP - Leipzig Halle

CURRENT METAR :
  • 241120Z 07007KT CAVOK 28/12 Q1022 NOSIG

EXPIRED METARs :
  • 241050Z 07007KT 020V130 CAVOK 27/11 Q1023 NOSIG
  • 241020Z 07008KT 020V130 CAVOK 27/13 Q1023 NOSIG
  • 240950Z 06009KT 030V100 9999 FEW046 26/13 Q1023 NOSIG
  • 240920Z 06008KT 010V100 CAVOK 25/14 Q1023 NOSIG
  • 240850Z 05008KT 010V090 CAVOK 24/14 Q1024 NOSIG

TAF TAF EDDP
Valid from the 24 at 12:00 until the 25 at 12:00 UTC


241100Z 2412/2512 08011KT CAVOK
BECMG 2417/2420 08006KT
PROB30
TEMPO 2503/2508 SHRA BKN020CB
No reported NOTAMs for that airfield.



MET'MAP, your aeronautical weather chart ! - Copyright ORBIFLY December 2007 - Disclaimer

ORBIFLY MET'MAP TEAM :

Programming & Development : Alexandra Zaïnal
Concept & Development : Baudouin d'Aumeries
Co-Development & Prog : Marc-Olivier Méhu
Technical & hardware support : Manuel Goepfert

Contact : metmap@orbifly.com




SOURCES & CREDITS :

   NOAA